Abha, Saudi Arabia

12:14 AM AST on September 23, 2014 (GMT +0300)
Abha | Change Station
CLOSE
Current Station
Airport
Location: Abha,
Elevation: 6857 ft
Nearby Weather Stations

Elev 6857 ft 18.24 °N, 42.66 °E | Updated 14 minutes ago

Clear
Clear
68 °F
Feels Like 68 °F
N
5
Wind Variable Wind from SSW

Today
High -- | Low -- °F
--% Chance of Precip.
Yesterday
High -- | Low -- °F
Precip. -- in
5:58 AM 6:05 PM
Waning Crescent, 2% visible
Pressure 30.18 in
Visibility -9999.0 miles
Clouds
Dew Point 57 °F
Humidity 68%
Rainfall 0.00 in
Snow Depth Not available.
UV Not available.
Pollen Not available.
Air Quality Not available.
Flu Activity Not available.
METAR OEAB 222100Z 20004KT CAVOK 20/14 Q1022 NOSIG

More Conditions Fewer Conditions

Pressure 30.18 in
Visibility -9999.0 miles
Clouds
Dew Point 57 °F
Humidity 68%
Rainfall 0.00 in
Snow Depth Not available.
UV Not available.
Pollen Not available.
Air Quality Not available.
Flu Activity Not available.
METAR OEAB 222100Z 20004KT CAVOK 20/14 Q1022 NOSIG

More Conditions Fewer Conditions

10-Day Weather Forecast

Almanac

Astronomy

Sep. 23, 2014 Rise Set
Actual Time 5:58 AM AST 6:05 PM AST
Civil Twilight 5:36 AM AST 6:26 PM AST
Nautical Twilight 5:11 AM AST 6:52 PM AST
Astronomical Twilight 4:45 AM AST 7:17 PM AST
Moon 5:06 AM AST (9/23) 5:31 PM AST (9/23)
Length of Visible Light 12h 50m
Length of Day
12h 06m
Tomorrow will be 1m 2s shorter.
Waning Crescent, 2% of the Moon is Illuminated
Sep 22
Waning Crescent
Sep 24
New
Oct 1
First Quarter
Oct 8
Full
Oct 15
Last Quarter

Yesterday's Extremes

Country Highs Country Lows

Community

WunderPhotos

Upload Photos

1,755,533 photos uploaded!

Nearby

Snow Depth

Not available.

Earthquake Activity

City Distance Mag. Time & Date
No recent earthquake activity has been reported nearby.
Minimum magnitude displayed is 2.5.

Coastal Water Temperatures

Place Temperature
No Stations Reporting

Nearby Weather Stations